createdAt,value
2023-02-14T00:09:52.649Z,101977.87
2023-02-14T00:24:55.931Z,101984.67
2023-02-14T00:39:59.118Z,101988.35
2023-02-14T00:55:02.614Z,102004.16
2023-02-14T01:10:06.423Z,102005.65
2023-02-14T01:25:09.570Z,102016.58
2023-02-14T01:40:14.147Z,102018.68
2023-02-14T01:55:23.906Z,102028.86
2023-02-14T02:10:27.071Z,102021.12
2023-02-14T02:26:11.731Z,102022.02
2023-02-14T02:41:46.373Z,102023.98
2023-02-14T02:56:56.161Z,102027.09
2023-02-14T03:12:30.059Z,102035.59
2023-02-14T03:27:49.109Z,102039.87
2023-02-14T03:42:57.492Z,102039.15
2023-02-14T03:58:12.213Z,102041.92
2023-02-14T04:13:15.370Z,102049.08
2023-02-14T04:28:18.588Z,102056.24
2023-02-14T04:43:21.679Z,102057.84
2023-02-14T04:58:24.890Z,102061.77
2023-02-14T05:13:28.763Z,102062.37
2023-02-14T05:28:32.098Z,102071.70
2023-02-14T05:43:35.495Z,102083.38
2023-02-14T05:58:38.966Z,102097.52
2023-02-14T06:13:42.445Z,102101.20
2023-02-14T06:28:45.626Z,102116.79
2023-02-14T06:43:49.056Z,102131.66
2023-02-14T06:58:52.263Z,102141.74
2023-02-14T07:13:55.563Z,102162.08
2023-02-14T07:28:58.762Z,102184.61
2023-02-14T07:44:02.160Z,102189.87
2023-02-14T07:59:05.292Z,102201.37
2023-02-14T08:14:08.540Z,102208.16
2023-02-14T08:29:11.763Z,102215.83
2023-02-14T08:44:16.680Z,102221.06
2023-02-14T08:59:19.857Z,102225.46
2023-02-14T09:14:24.714Z,102223.36
2023-02-14T09:29:29.120Z,102222.92
2023-02-14T09:44:54.283Z,102223.85
2023-02-14T10:00:11.693Z,102235.23
2023-02-14T10:15:21.614Z,102236.81
2023-02-14T10:30:25.362Z,102229.63
2023-02-14T10:45:40.275Z,102225.38
2023-02-14T11:01:14.316Z,102231.86
2023-02-14T11:16:33.123Z,102226.52
2023-02-14T11:31:39.446Z,102223.67
2023-02-14T11:46:52.753Z,102210.09
2023-02-14T12:02:00.722Z,102194.10
2023-02-14T12:17:44.697Z,102182.30
2023-02-14T12:32:58.837Z,102172.32
2023-02-14T12:48:21.264Z,102165.28
2023-02-14T13:04:04.708Z,102158.38
2023-02-14T13:19:41.186Z,102147.38
2023-02-14T13:34:47.249Z,102148.42
2023-02-14T13:50:06.118Z,102140.23
2023-02-14T14:05:32.960Z,102128.82
2023-02-14T14:20:44.107Z,102124.23
2023-02-14T14:42:43.718Z,102122.83
2023-02-14T14:57:52.755Z,102121.55
2023-02-14T15:13:18.441Z,102124.55
2023-02-14T15:28:30.034Z,102122.02
2023-02-14T15:43:37.917Z,102117.04
2023-02-14T15:58:41.327Z,102122.13
2023-02-14T16:13:48.086Z,102128.38
2023-02-14T16:28:51.238Z,102141.04
2023-02-14T16:43:57.319Z,102152.16
2023-02-14T16:59:01.372Z,102160.86
2023-02-14T17:14:05.559Z,102166.44
2023-02-14T17:29:09.047Z,102168.36
2023-02-14T17:44:14.434Z,102160.15
2023-02-14T17:59:18.292Z,102158.65
2023-02-14T18:14:22.376Z,102159.57
2023-02-14T18:29:25.721Z,102163.29
2023-02-14T18:44:29.487Z,102162.10
2023-02-14T18:59:33.570Z,102161.63
2023-02-14T19:14:37.809Z,102155.58
2023-02-14T19:29:42.324Z,102146.59
2023-02-14T19:44:48.641Z,102149.45
2023-02-14T19:59:53.858Z,102147.55
2023-02-14T20:14:58.182Z,102143.95
2023-02-14T20:30:01.995Z,102149.14
2023-02-14T20:45:09.936Z,102148.21
2023-02-14T21:00:13.744Z,102145.45
2023-02-14T21:15:17.348Z,102145.08
2023-02-14T21:30:21.338Z,102138.00
2023-02-14T21:45:43.670Z,102140.05
2023-02-14T22:00:48.422Z,102139.45
2023-02-14T22:15:52.357Z,102131.30
2023-02-14T22:31:00.359Z,102122.75
2023-02-14T22:46:06.536Z,102135.02
2023-02-14T23:01:18.955Z,102135.33
2023-02-14T23:16:41.610Z,102125.52
2023-02-14T23:31:44.912Z,102125.65
2023-02-14T23:46:49.856Z,102127.90
